createdAt,value
2023-01-17T00:00:30.596Z,789.61
2023-01-17T00:01:30.575Z,789.65
2023-01-17T00:02:30.603Z,789.64
2023-01-17T00:03:30.605Z,789.62
2023-01-17T00:04:30.583Z,789.64
2023-01-17T00:05:30.579Z,789.65
2023-01-17T00:06:30.578Z,789.63
2023-01-17T00:07:30.582Z,789.59
2023-01-17T00:08:30.596Z,789.53
2023-01-17T00:09:30.591Z,789.53
2023-01-17T00:10:30.590Z,789.54
2023-01-17T00:11:30.575Z,789.54
2023-01-17T00:12:30.587Z,789.55
2023-01-17T00:13:30.579Z,789.59
2023-01-17T00:14:30.587Z,789.55
2023-01-17T00:15:30.579Z,789.58
2023-01-17T00:16:30.579Z,789.60
2023-01-17T00:17:30.576Z,789.56
2023-01-17T00:18:30.582Z,789.57
2023-01-17T00:19:30.604Z,789.57
2023-01-17T00:20:30.582Z,789.54
2023-01-17T00:21:30.583Z,789.53
2023-01-17T00:22:30.586Z,789.54
2023-01-17T00:23:30.592Z,789.56
2023-01-17T00:24:30.601Z,789.52
2023-01-17T00:25:30.586Z,789.49
2023-01-17T00:26:30.582Z,789.52
2023-01-17T00:27:30.580Z,789.53
2023-01-17T00:28:30.583Z,789.53
2023-01-17T00:29:30.678Z,789.53
2023-01-17T00:30:30.586Z,789.48
2023-01-17T00:31:30.665Z,789.51
2023-01-17T00:32:30.579Z,789.50
2023-01-17T00:33:30.594Z,789.51
2023-01-17T00:34:30.584Z,789.54
2023-01-17T00:35:30.597Z,789.52
2023-01-17T00:36:30.582Z,789.53
2023-01-17T00:37:30.581Z,789.51
2023-01-17T00:38:30.594Z,789.55
2023-01-17T00:39:30.579Z,789.55
2023-01-17T00:40:30.583Z,789.55
2023-01-17T00:41:30.578Z,789.60
2023-01-17T00:42:30.586Z,789.60
2023-01-17T00:43:30.585Z,789.58
2023-01-17T00:44:30.589Z,789.62
2023-01-17T00:45:30.587Z,789.61
2023-01-17T00:46:30.604Z,789.60
2023-01-17T00:47:30.585Z,789.55
2023-01-17T00:48:30.584Z,789.51
2023-01-17T00:49:30.593Z,789.53
2023-01-17T00:50:30.582Z,789.50
2023-01-17T00:51:30.612Z,789.56
2023-01-17T00:52:30.585Z,789.56
2023-01-17T00:53:30.589Z,789.52
2023-01-17T00:54:30.591Z,789.48
2023-01-17T00:55:30.580Z,789.52
2023-01-17T00:56:30.585Z,789.47
2023-01-17T00:57:30.583Z,789.46
2023-01-17T00:58:30.586Z,789.42
2023-01-17T00:59:30.587Z,789.40
2023-01-17T01:00:30.692Z,789.39
2023-01-17T01:01:30.703Z,789.37
2023-01-17T01:02:30.631Z,789.32
2023-01-17T01:03:30.587Z,789.32
2023-01-17T01:04:30.597Z,789.29
2023-01-17T01:05:30.594Z,789.27
2023-01-17T01:06:30.596Z,789.26
2023-01-17T01:07:30.628Z,789.27
2023-01-17T01:08:30.582Z,789.25
2023-01-17T01:09:30.586Z,789.28
2023-01-17T01:10:30.583Z,789.29
2023-01-17T01:11:30.594Z,789.29
2023-01-17T01:12:30.586Z,789.33
2023-01-17T01:13:30.593Z,789.33
2023-01-17T01:14:30.587Z,789.36
2023-01-17T01:15:30.584Z,789.37
2023-01-17T01:16:30.669Z,789.35
2023-01-17T01:17:30.593Z,789.31
2023-01-17T01:18:30.595Z,789.30
2023-01-17T01:19:30.583Z,789.29
2023-01-17T01:20:30.635Z,789.26
2023-01-17T01:23:14.212Z,789.23
2023-01-17T01:24:14.191Z,789.18
2023-01-17T01:25:14.193Z,789.20
2023-01-17T01:26:14.190Z,789.19
2023-01-17T01:27:14.189Z,789.19
2023-01-17T01:28:14.185Z,789.21
2023-01-17T01:29:14.193Z,789.14
2023-01-17T01:30:14.187Z,789.15
2023-01-17T01:31:14.230Z,789.19
2023-01-17T01:32:14.185Z,789.15
2023-01-17T01:33:14.197Z,789.13
2023-01-17T01:34:14.195Z,789.17
2023-01-17T01:35:14.190Z,789.11
2023-01-17T01:36:14.192Z,789.11
2023-01-17T01:37:14.188Z,789.09
2023-01-17T01:38:14.188Z,789.13
2023-01-17T01:39:14.234Z,789.11
2023-01-17T01:40:14.190Z,789.08
2023-01-17T01:41:14.201Z,789.11
2023-01-17T01:42:14.206Z,789.05
2023-01-17T01:43:14.195Z,789.04
2023-01-17T01:44:14.191Z,789.00
2023-01-17T01:45:14.202Z,788.96
2023-01-17T01:46:14.184Z,789.03
2023-01-17T01:47:14.188Z,789.01
2023-01-17T01:48:14.185Z,789.02
2023-01-17T01:49:14.212Z,788.99
2023-01-17T01:50:14.184Z,789.02
2023-01-17T01:51:14.191Z,788.98
2023-01-17T01:52:14.184Z,789.02
2023-01-17T01:53:14.186Z,789.03
2023-01-17T01:54:14.200Z,789.09
2023-01-17T01:55:14.202Z,789.07
2023-01-17T01:56:14.186Z,789.03
2023-01-17T01:57:14.185Z,789.00
2023-01-17T01:58:14.183Z,789.01
2023-01-17T01:59:14.185Z,788.97
2023-01-17T02:00:14.184Z,788.99
2023-01-17T02:01:14.298Z,788.99
2023-01-17T02:02:14.181Z,788.97
2023-01-17T02:03:14.185Z,788.98
2023-01-17T02:04:14.181Z,788.91
2023-01-17T02:05:14.183Z,788.96
2023-01-17T02:06:14.196Z,788.90
2023-01-17T02:07:14.185Z,788.90
2023-01-17T02:08:14.194Z,788.94
2023-01-17T02:09:14.185Z,788.97
2023-01-17T02:10:14.188Z,788.95
2023-01-17T02:11:14.303Z,788.95
2023-01-17T02:12:14.183Z,788.94
2023-01-17T02:13:14.181Z,788.92
2023-01-17T02:14:14.184Z,788.91
2023-01-17T02:15:14.189Z,788.90
2023-01-17T02:16:14.255Z,788.93
2023-01-17T02:17:14.183Z,788.90
2023-01-17T02:18:14.179Z,788.89
2023-01-17T02:19:14.179Z,788.88
2023-01-17T02:20:14.177Z,788.85
2023-01-17T02:21:14.180Z,788.82
2023-01-17T02:22:14.180Z,788.82
2023-01-17T02:23:14.182Z,788.83
2023-01-17T02:24:14.198Z,788.83
2023-01-17T02:25:14.183Z,788.85
2023-01-17T02:26:14.182Z,788.86
2023-01-17T02:27:14.201Z,788.85
2023-01-17T02:28:14.175Z,788.85
2023-01-17T02:29:14.180Z,788.83
2023-01-17T02:30:14.190Z,788.80
2023-01-17T02:31:14.246Z,788.80
2023-01-17T02:32:14.176Z,788.76
2023-01-17T02:33:14.182Z,788.71
2023-01-17T02:34:14.172Z,788.72
2023-01-17T02:35:14.178Z,788.72
2023-01-17T02:36:14.181Z,788.69
2023-01-17T02:37:14.176Z,788.68
2023-01-17T02:38:14.180Z,788.65
2023-01-17T02:39:14.181Z,788.64
2023-01-17T02:40:14.176Z,788.60
2023-01-17T02:41:14.177Z,788.63
2023-01-17T02:42:14.180Z,788.61
2023-01-17T02:43:14.202Z,788.59
2023-01-17T02:44:14.170Z,788.60
2023-01-17T02:45:14.172Z,788.56
2023-01-17T02:46:14.200Z,788.55
2023-01-17T02:47:14.171Z,788.53
2023-01-17T02:48:14.170Z,788.53
2023-01-17T02:49:14.183Z,788.49
2023-01-17T02:50:14.171Z,788.45
2023-01-17T02:51:14.170Z,788.45
2023-01-17T02:52:14.184Z,788.37
2023-01-17T02:53:14.172Z,788.33
2023-01-17T02:54:14.167Z,788.33
2023-01-17T02:55:14.171Z,788.27
2023-01-17T02:56:14.173Z,788.26
2023-01-17T02:57:14.171Z,788.31
2023-01-17T02:58:14.163Z,788.23
2023-01-17T02:59:14.199Z,788.22
2023-01-17T03:00:14.175Z,788.19
2023-01-17T03:01:14.253Z,788.25
2023-01-17T03:02:14.296Z,788.24
2023-01-17T03:03:14.168Z,788.22
2023-01-17T03:04:14.176Z,788.27
2023-01-17T03:05:14.171Z,788.29
2023-01-17T03:06:14.164Z,788.31
2023-01-17T03:07:14.166Z,788.28
2023-01-17T03:08:14.159Z,788.30
2023-01-17T03:09:14.169Z,788.21
2023-01-17T03:10:14.165Z,788.20
2023-01-17T03:11:14.163Z,788.17
2023-01-17T03:12:14.164Z,788.17
2023-01-17T03:13:14.167Z,788.18
2023-01-17T03:14:14.157Z,788.16
2023-01-17T03:15:14.180Z,788.15
2023-01-17T03:16:14.253Z,788.14
2023-01-17T03:17:14.167Z,788.11
2023-01-17T03:18:14.157Z,788.11
2023-01-17T03:19:14.170Z,788.04
2023-01-17T03:20:14.165Z,788.05
2023-01-17T03:21:14.157Z,788.07
2023-01-17T03:22:14.163Z,788.03
2023-01-17T03:23:14.162Z,788.02
2023-01-17T03:24:14.156Z,788.03
2023-01-17T03:25:14.163Z,788.02
2023-01-17T03:26:14.152Z,787.98
2023-01-17T03:27:14.164Z,787.99
2023-01-17T03:28:14.147Z,787.99
2023-01-17T03:29:14.151Z,787.99
2023-01-17T03:30:14.154Z,787.95
2023-01-17T03:31:14.171Z,787.96
2023-01-17T03:32:14.147Z,787.95
2023-01-17T03:33:14.152Z,787.97
2023-01-17T03:34:14.144Z,787.92
2023-01-17T03:35:14.154Z,787.96
2023-01-17T03:36:14.144Z,787.94
2023-01-17T03:37:14.151Z,787.91
2023-01-17T03:38:14.152Z,787.88
2023-01-17T03:39:14.165Z,787.88
2023-01-17T03:40:14.148Z,787.86
2023-01-17T03:41:14.143Z,787.82
2023-01-17T03:42:14.160Z,787.83
2023-01-17T03:43:14.152Z,787.78
2023-01-17T03:44:14.141Z,787.77
2023-01-17T03:45:14.153Z,787.76
2023-01-17T03:46:14.140Z,787.76
2023-01-17T03:47:14.163Z,787.79
2023-01-17T03:48:14.137Z,787.76
2023-01-17T03:49:14.162Z,787.73
2023-01-17T03:50:14.136Z,787.72
2023-01-17T03:51:14.166Z,787.66
2023-01-17T03:52:14.139Z,787.69
2023-01-17T03:53:14.143Z,787.68
2023-01-17T03:54:14.142Z,787.68
2023-01-17T03:55:14.137Z,787.65
2023-01-17T03:56:14.143Z,787.65
2023-01-17T03:57:14.138Z,787.62
2023-01-17T03:58:14.134Z,787.57
2023-01-17T03:59:14.140Z,787.52
2023-01-17T04:00:14.135Z,787.47
2023-01-17T04:01:14.227Z,787.46
2023-01-17T04:02:14.304Z,787.41
2023-01-17T04:03:14.164Z,787.39
2023-01-17T04:04:14.147Z,787.35
2023-01-17T04:05:14.134Z,787.32
2023-01-17T04:06:14.133Z,787.26
2023-01-17T04:07:14.142Z,787.25
2023-01-17T04:08:14.137Z,787.23
2023-01-17T04:09:14.134Z,787.21
2023-01-17T04:10:14.133Z,787.22
2023-01-17T04:11:14.141Z,787.21
2023-01-17T04:12:14.130Z,787.19
2023-01-17T04:13:14.141Z,787.18
2023-01-17T04:14:14.147Z,787.13
2023-01-17T04:15:14.158Z,787.11
2023-01-17T04:16:14.166Z,787.15
2023-01-17T04:17:14.138Z,787.12
2023-01-17T04:18:14.143Z,787.08
2023-01-17T04:19:14.152Z,787.07
2023-01-17T04:20:14.130Z,787.04
2023-01-17T04:21:14.135Z,786.99
2023-01-17T04:22:14.130Z,786.92
2023-01-17T04:23:14.139Z,786.91
2023-01-17T04:24:14.810Z,786.86
2023-01-17T04:25:14.132Z,786.86
2023-01-17T04:26:14.135Z,786.81
2023-01-17T04:27:14.181Z,786.76
2023-01-17T04:28:14.134Z,786.73
2023-01-17T04:29:14.140Z,786.70
2023-01-17T04:30:14.132Z,786.73
2023-01-17T04:31:14.295Z,786.70
2023-01-17T04:32:14.134Z,786.73
2023-01-17T04:33:14.133Z,786.74
2023-01-17T04:34:14.131Z,786.82
2023-01-17T04:35:14.157Z,786.81
2023-01-17T04:36:14.134Z,786.83
2023-01-17T04:37:14.131Z,786.83
2023-01-17T04:38:14.128Z,786.83
2023-01-17T04:39:14.130Z,786.82
2023-01-17T04:40:14.138Z,786.79
2023-01-17T04:41:14.149Z,786.84
2023-01-17T04:42:14.164Z,786.81
2023-01-17T04:43:14.130Z,786.78
2023-01-17T04:44:14.132Z,786.80
2023-01-17T04:45:14.137Z,786.78
2023-01-17T04:46:14.165Z,786.79
2023-01-17T04:47:14.137Z,786.77
2023-01-17T04:48:14.128Z,786.78
2023-01-17T04:49:14.133Z,786.79
2023-01-17T04:50:14.132Z,786.80
2023-01-17T04:51:14.166Z,786.77
2023-01-17T04:52:14.127Z,786.76
2023-01-17T04:53:14.129Z,786.79
2023-01-17T04:54:14.136Z,786.77
2023-01-17T04:55:14.128Z,786.79
2023-01-17T04:56:14.124Z,786.78
2023-01-17T04:57:14.126Z,786.79
2023-01-17T04:58:14.125Z,786.77
2023-01-17T04:59:14.131Z,786.75
2023-01-17T05:00:14.124Z,786.73
2023-01-17T05:01:14.190Z,786.70
2023-01-17T05:02:14.124Z,786.70
2023-01-17T05:03:14.125Z,786.70
2023-01-17T05:04:14.122Z,786.69
2023-01-17T05:05:14.130Z,786.70
2023-01-17T05:06:14.125Z,786.65
2023-01-17T05:07:14.154Z,786.66
2023-01-17T05:08:14.130Z,786.63
2023-01-17T05:09:14.146Z,786.56
2023-01-17T05:10:14.126Z,786.57
2023-01-17T05:11:14.126Z,786.55
2023-01-17T05:12:14.125Z,786.52
2023-01-17T05:13:14.125Z,786.52
2023-01-17T05:14:14.121Z,786.50
2023-01-17T05:15:14.123Z,786.50
2023-01-17T05:16:14.139Z,786.48
2023-01-17T05:17:14.127Z,786.48
2023-01-17T05:18:14.141Z,786.46
2023-01-17T05:19:14.127Z,786.41
2023-01-17T05:20:14.125Z,786.42
2023-01-17T05:21:14.125Z,786.40
2023-01-17T05:22:14.122Z,786.38
2023-01-17T05:23:14.155Z,786.38
2023-01-17T05:24:14.120Z,786.36
2023-01-17T05:25:14.138Z,786.32
2023-01-17T05:26:14.123Z,786.28
2023-01-17T05:27:14.134Z,786.30
2023-01-17T05:28:14.136Z,786.32
2023-01-17T05:29:14.122Z,786.35
2023-01-17T05:30:14.124Z,786.30
2023-01-17T05:31:14.197Z,786.23
2023-01-17T05:32:14.126Z,786.23
2023-01-17T05:33:14.125Z,786.19
2023-01-17T05:34:14.131Z,786.22
2023-01-17T05:35:14.119Z,786.20
2023-01-17T05:36:14.121Z,786.17
2023-01-17T05:37:14.120Z,786.16
2023-01-17T05:38:14.126Z,786.18
2023-01-17T05:39:14.153Z,786.21
2023-01-17T05:40:14.135Z,786.16
2023-01-17T05:41:14.166Z,786.20
2023-01-17T05:42:14.122Z,786.17
2023-01-17T05:43:14.125Z,786.16
2023-01-17T05:44:14.127Z,786.15
2023-01-17T05:45:14.129Z,786.11
2023-01-17T05:46:14.213Z,786.09
2023-01-17T05:47:14.123Z,786.03
2023-01-17T05:48:14.124Z,786.00
2023-01-17T05:49:14.120Z,785.99
2023-01-17T05:50:14.134Z,786.04
2023-01-17T05:51:14.133Z,786.10
2023-01-17T05:52:14.131Z,786.14
2023-01-17T05:53:14.121Z,786.14
2023-01-17T05:54:14.134Z,786.16
2023-01-17T05:55:14.142Z,786.17
2023-01-17T05:56:14.136Z,786.13
2023-01-17T05:57:14.122Z,786.10
2023-01-17T05:58:14.128Z,786.04
2023-01-17T05:59:14.444Z,785.98
2023-01-17T06:00:14.125Z,785.95
2023-01-17T06:01:14.151Z,785.93
2023-01-17T06:02:14.119Z,786.01
2023-01-17T06:03:14.118Z,785.98
2023-01-17T06:04:14.206Z,786.08
2023-01-17T06:05:14.120Z,786.14
2023-01-17T06:06:14.122Z,786.14
2023-01-17T06:07:14.125Z,786.18
2023-01-17T06:08:14.121Z,786.21
2023-01-17T06:09:14.115Z,786.23
2023-01-17T06:10:14.116Z,786.27
2023-01-17T06:11:14.138Z,786.30
2023-01-17T06:12:14.137Z,786.26
2023-01-17T06:13:14.115Z,786.32
2023-01-17T06:14:14.122Z,786.27
2023-01-17T06:15:14.112Z,786.28
2023-01-17T06:16:14.175Z,786.33
2023-01-17T06:17:14.113Z,786.32
2023-01-17T06:18:14.146Z,786.34
2023-01-17T06:19:14.126Z,786.35
2023-01-17T06:20:14.115Z,786.30
2023-01-17T06:21:14.117Z,786.29
2023-01-17T06:22:14.128Z,786.30
2023-01-17T06:23:14.115Z,786.30
2023-01-17T06:24:14.133Z,786.27
2023-01-17T06:25:14.122Z,786.28
2023-01-17T06:26:14.119Z,786.25
2023-01-17T06:27:14.130Z,786.23
2023-01-17T06:28:14.115Z,786.18
2023-01-17T06:29:14.108Z,786.12
2023-01-17T06:30:14.113Z,786.09
2023-01-17T06:31:14.124Z,786.12
2023-01-17T06:32:14.124Z,786.12
2023-01-17T06:33:14.116Z,786.11
2023-01-17T06:34:14.106Z,786.09
2023-01-17T06:35:14.105Z,786.07
2023-01-17T06:36:14.122Z,786.08
2023-01-17T06:37:14.108Z,786.09
2023-01-17T06:38:14.121Z,786.10
2023-01-17T06:39:15.117Z,786.13
2023-01-17T06:40:14.112Z,786.10
2023-01-17T06:41:14.109Z,786.11
2023-01-17T06:42:14.104Z,786.12
2023-01-17T06:43:14.119Z,786.06
2023-01-17T06:44:14.104Z,786.08
2023-01-17T06:45:14.099Z,786.05
2023-01-17T06:46:14.183Z,786.04
2023-01-17T06:47:14.101Z,786.08
2023-01-17T06:48:14.126Z,786.04
2023-01-17T06:49:14.099Z,785.99
2023-01-17T06:50:14.109Z,785.92
2023-01-17T06:51:14.118Z,785.93
2023-01-17T06:52:14.103Z,785.93
2023-01-17T06:53:14.100Z,785.83
2023-01-17T06:54:14.104Z,785.78
2023-01-17T06:55:14.100Z,785.75
2023-01-17T06:56:14.103Z,785.73
2023-01-17T06:57:14.116Z,785.74
2023-01-17T06:58:14.103Z,785.76
2023-01-17T06:59:14.159Z,785.81
2023-01-17T07:00:14.104Z,785.88
2023-01-17T07:01:14.256Z,785.85
2023-01-17T07:02:14.106Z,785.85
2023-01-17T07:03:14.102Z,785.78
2023-01-17T07:04:14.103Z,785.75
2023-01-17T07:05:14.097Z,785.68
2023-01-17T07:06:14.105Z,785.61
2023-01-17T07:07:14.104Z,785.59
2023-01-17T07:08:14.107Z,785.54
2023-01-17T07:09:14.097Z,785.56
2023-01-17T07:10:14.104Z,785.51
2023-01-17T07:11:14.099Z,785.47
2023-01-17T07:12:14.104Z,785.45
2023-01-17T07:13:14.100Z,785.37
2023-01-17T07:14:14.104Z,785.33
2023-01-17T07:15:14.124Z,785.37
2023-01-17T07:16:14.137Z,785.44
2023-01-17T07:17:14.100Z,785.45
2023-01-17T07:18:14.122Z,785.40
2023-01-17T07:19:14.107Z,785.39
2023-01-17T07:20:14.125Z,785.36
2023-01-17T07:21:14.104Z,785.39
2023-01-17T07:22:14.111Z,785.39
2023-01-17T07:23:14.102Z,785.34
2023-01-17T07:24:14.106Z,785.27
2023-01-17T07:25:14.115Z,785.16
2023-01-17T07:26:14.108Z,785.11
2023-01-17T07:27:14.127Z,785.04
2023-01-17T07:28:14.121Z,784.96
2023-01-17T07:29:14.113Z,784.92
2023-01-17T07:30:14.104Z,784.89
2023-01-17T07:31:14.182Z,784.87
2023-01-17T07:32:14.107Z,784.93
2023-01-17T07:33:14.140Z,785.00
2023-01-17T07:34:14.109Z,785.01
2023-01-17T07:35:14.104Z,785.01
2023-01-17T07:36:14.114Z,784.99
2023-01-17T07:37:15.328Z,784.99
2023-01-17T07:38:14.111Z,785.01
2023-01-17T07:39:14.103Z,785.01
2023-01-17T07:40:14.114Z,785.10
2023-01-17T07:41:14.162Z,785.06
2023-01-17T07:42:14.120Z,785.06
2023-01-17T07:43:14.256Z,785.10
2023-01-17T07:44:14.126Z,785.11
2023-01-17T07:45:14.107Z,785.08
2023-01-17T07:46:14.137Z,785.08
2023-01-17T07:47:14.132Z,785.09
2023-01-17T07:48:14.115Z,785.10
2023-01-17T07:49:14.109Z,785.10
2023-01-17T07:50:14.109Z,785.10
2023-01-17T07:51:14.106Z,785.10
2023-01-17T07:52:14.111Z,785.08
2023-01-17T07:53:14.113Z,785.03
2023-01-17T07:54:14.121Z,785.01
2023-01-17T07:55:14.115Z,785.02
2023-01-17T07:56:14.119Z,785.02
2023-01-17T07:57:14.117Z,784.95
2023-01-17T07:58:14.116Z,784.92
2023-01-17T07:59:14.114Z,784.86
2023-01-17T08:00:14.121Z,784.84
2023-01-17T08:01:14.184Z,784.80
2023-01-17T08:02:14.128Z,784.77
2023-01-17T08:03:14.137Z,784.77
2023-01-17T08:04:14.226Z,784.77
2023-01-17T08:05:14.115Z,784.82
2023-01-17T08:06:14.120Z,784.94
2023-01-17T08:07:14.124Z,784.98
2023-01-17T08:08:14.761Z,785.00
2023-01-17T08:09:14.117Z,785.04
2023-01-17T08:10:14.119Z,785.04
2023-01-17T08:11:14.117Z,785.01
2023-01-17T08:12:14.122Z,784.99
2023-01-17T08:13:14.119Z,784.96
2023-01-17T08:14:14.123Z,785.01
2023-01-17T08:15:14.219Z,785.04
2023-01-17T08:16:14.160Z,785.04
2023-01-17T08:17:14.120Z,785.00
2023-01-17T08:18:14.128Z,784.99
2023-01-17T08:19:14.144Z,784.97
2023-01-17T08:20:14.126Z,784.97
2023-01-17T08:21:14.131Z,785.00
2023-01-17T08:22:14.136Z,784.96
2023-01-17T08:23:14.126Z,784.97
2023-01-17T08:24:14.130Z,785.02
2023-01-17T08:25:14.122Z,785.05
2023-01-17T08:26:14.127Z,785.08
2023-01-17T08:27:14.159Z,785.14
2023-01-17T08:28:14.139Z,785.08
2023-01-17T08:29:14.129Z,785.13
2023-01-17T08:30:14.139Z,785.11
2023-01-17T08:31:14.130Z,785.10
2023-01-17T08:32:14.182Z,785.12
2023-01-17T08:33:14.147Z,785.11
2023-01-17T08:34:14.138Z,785.10
2023-01-17T08:35:14.154Z,785.11
2023-01-17T08:36:14.185Z,785.14
2023-01-17T08:37:14.129Z,785.13
2023-01-17T08:38:14.134Z,785.13
2023-01-17T08:39:14.136Z,785.12
2023-01-17T08:40:14.134Z,785.19
2023-01-17T08:41:14.137Z,785.14
2023-01-17T08:42:14.150Z,785.16
2023-01-17T08:43:14.135Z,785.20
2023-01-17T08:44:14.137Z,785.18
2023-01-17T08:45:14.136Z,785.19
2023-01-17T08:46:14.136Z,785.17
2023-01-17T08:47:14.140Z,785.16
2023-01-17T08:48:14.140Z,785.13
2023-01-17T08:49:14.136Z,785.15
2023-01-17T08:50:14.142Z,785.21
2023-01-17T08:51:14.171Z,785.24
2023-01-17T08:52:14.153Z,785.21
2023-01-17T08:53:14.138Z,785.24
2023-01-17T08:54:14.141Z,785.23
2023-01-17T08:55:14.143Z,785.19
2023-01-17T08:56:14.145Z,785.13
2023-01-17T08:57:14.169Z,785.11
2023-01-17T08:58:14.165Z,785.09
2023-01-17T08:59:14.140Z,785.16
2023-01-17T09:00:14.147Z,785.29
2023-01-17T09:01:14.313Z,785.32
2023-01-17T09:02:14.144Z,785.32
2023-01-17T09:03:14.144Z,785.34
2023-01-17T09:04:14.195Z,785.31
2023-01-17T09:05:14.150Z,785.23
2023-01-17T09:06:14.154Z,785.25
2023-01-17T09:07:14.171Z,785.25
2023-01-17T09:08:14.147Z,785.21
2023-01-17T09:09:14.143Z,785.21
2023-01-17T09:10:14.149Z,785.13
2023-01-17T09:11:14.144Z,785.13
2023-01-17T09:12:14.156Z,785.15
2023-01-17T09:13:14.144Z,785.15
2023-01-17T09:14:14.160Z,785.17
2023-01-17T09:15:14.145Z,785.17
2023-01-17T09:16:14.225Z,785.24
2023-01-17T09:17:14.649Z,785.24
2023-01-17T09:18:14.158Z,785.28
2023-01-17T09:19:14.147Z,785.29
2023-01-17T09:20:14.166Z,785.38
2023-01-17T09:21:14.175Z,785.37
2023-01-17T09:22:14.155Z,785.40
2023-01-17T09:23:14.175Z,785.43
2023-01-17T09:24:14.158Z,785.39
2023-01-17T09:25:14.149Z,785.42
2023-01-17T09:26:14.152Z,785.43
2023-01-17T09:27:14.147Z,785.45
2023-01-17T09:28:14.153Z,785.38
2023-01-17T09:29:14.147Z,785.40
2023-01-17T09:30:14.167Z,785.38
2023-01-17T09:31:15.972Z,785.38
2023-01-17T09:32:14.153Z,785.35
2023-01-17T09:33:14.252Z,785.40
2023-01-17T09:34:14.174Z,785.38
2023-01-17T09:35:14.152Z,785.42
2023-01-17T09:36:14.164Z,785.42
2023-01-17T09:37:14.151Z,785.35
2023-01-17T09:38:14.268Z,785.29
2023-01-17T09:39:14.187Z,785.29
2023-01-17T09:40:14.169Z,785.32
2023-01-17T09:41:14.154Z,785.35
2023-01-17T09:42:14.173Z,785.33
2023-01-17T09:43:14.196Z,785.31
2023-01-17T09:44:14.161Z,785.26
2023-01-17T09:45:14.163Z,785.14
2023-01-17T09:46:14.259Z,785.07
2023-01-17T09:47:14.194Z,785.06
2023-01-17T09:48:14.160Z,785.16
2023-01-17T09:49:14.169Z,785.23
2023-01-17T09:50:14.163Z,785.23
2023-01-17T09:51:14.159Z,785.18
2023-01-17T09:52:14.264Z,785.13
2023-01-17T09:53:14.164Z,785.12
2023-01-17T09:54:14.163Z,785.11
2023-01-17T09:55:14.189Z,785.11
2023-01-17T09:56:14.178Z,785.09
2023-01-17T09:57:14.166Z,785.06
2023-01-17T09:58:14.167Z,785.03
2023-01-17T09:59:16.883Z,784.99
2023-01-17T10:00:14.191Z,784.97
2023-01-17T10:01:14.416Z,784.97
2023-01-17T10:02:14.328Z,785.00
2023-01-17T10:03:14.292Z,785.02
2023-01-17T10:04:14.326Z,785.08
2023-01-17T10:05:14.221Z,784.98
2023-01-17T10:06:14.172Z,784.92
2023-01-17T10:07:14.175Z,784.88
2023-01-17T10:08:14.178Z,784.93
2023-01-17T10:09:14.190Z,784.92
2023-01-17T10:10:14.179Z,784.93
2023-01-17T10:11:14.223Z,784.91
2023-01-17T10:12:14.180Z,784.94
2023-01-17T10:13:14.191Z,784.97
2023-01-17T10:14:14.180Z,784.98
2023-01-17T10:15:14.185Z,784.93
2023-01-17T10:16:14.184Z,784.96
2023-01-17T10:17:14.187Z,784.93
2023-01-17T10:18:28.756Z,784.96
2023-01-17T10:19:14.188Z,784.97
2023-01-17T10:20:14.191Z,784.99
2023-01-17T10:21:14.196Z,784.98
2023-01-17T10:22:14.187Z,784.96
2023-01-17T10:23:14.195Z,784.96
2023-01-17T10:24:14.191Z,784.96
2023-01-17T10:25:14.223Z,784.93
2023-01-17T10:26:14.193Z,784.94
2023-01-17T10:27:14.247Z,784.93
2023-01-17T10:28:14.202Z,784.94
2023-01-17T10:29:14.199Z,784.91
2023-01-17T10:30:14.248Z,784.89
2023-01-17T10:31:14.282Z,784.83
2023-01-17T10:32:14.201Z,784.79
2023-01-17T10:33:14.206Z,784.81
2023-01-17T10:34:14.207Z,784.84
2023-01-17T10:35:14.942Z,784.87
2023-01-17T10:36:14.213Z,784.84
2023-01-17T10:37:14.210Z,784.81
2023-01-17T10:38:14.206Z,784.77
2023-01-17T10:39:14.313Z,784.84
2023-01-17T10:40:14.219Z,784.81
2023-01-17T10:41:14.219Z,784.82
2023-01-17T10:42:14.219Z,784.76
2023-01-17T10:43:14.243Z,784.74
2023-01-17T10:44:14.313Z,784.71
2023-01-17T10:45:14.225Z,784.69
2023-01-17T10:46:14.277Z,784.67
2023-01-17T10:47:14.227Z,784.65
2023-01-17T10:48:14.222Z,784.63
2023-01-17T10:49:14.226Z,784.65
2023-01-17T10:50:14.221Z,784.67
2023-01-17T10:51:14.237Z,784.65
2023-01-17T10:52:14.229Z,784.63
2023-01-17T10:53:14.228Z,784.65
2023-01-17T10:54:14.227Z,784.65
2023-01-17T10:55:14.240Z,784.63
2023-01-17T10:56:14.239Z,784.54
2023-01-17T10:57:14.235Z,784.50
2023-01-17T10:58:14.237Z,784.49
2023-01-17T10:59:14.258Z,784.48
2023-01-17T11:00:14.240Z,784.37
2023-01-17T11:01:14.328Z,784.30
2023-01-17T11:02:14.362Z,784.27
2023-01-17T11:03:14.252Z,784.19
2023-01-17T11:04:14.247Z,784.20
2023-01-17T11:05:14.269Z,784.22
2023-01-17T11:06:14.245Z,784.19
2023-01-17T11:07:14.263Z,784.16
2023-01-17T11:08:14.315Z,784.18
2023-01-17T11:09:14.256Z,784.18
2023-01-17T11:10:14.256Z,784.15
2023-01-17T11:11:14.282Z,784.19
2023-01-17T11:12:14.258Z,784.13
2023-01-17T11:13:14.261Z,784.06
2023-01-17T11:14:14.259Z,783.94
2023-01-17T11:15:14.292Z,783.88
2023-01-17T11:16:14.263Z,783.90
2023-01-17T11:17:14.280Z,783.96
2023-01-17T11:18:14.266Z,783.98
2023-01-17T11:19:14.274Z,784.04
2023-01-17T11:20:14.276Z,784.04
2023-01-17T11:21:14.274Z,784.04
2023-01-17T11:22:14.275Z,784.01
2023-01-17T11:23:14.282Z,783.93
2023-01-17T11:24:14.282Z,783.89
2023-01-17T11:25:14.294Z,783.82
2023-01-17T11:26:14.283Z,783.76
2023-01-17T11:27:14.284Z,783.76
2023-01-17T11:28:14.296Z,783.78
2023-01-17T11:29:14.297Z,783.79
2023-01-17T11:30:14.298Z,783.84
2023-01-17T11:31:14.340Z,783.81
2023-01-17T11:32:14.293Z,783.82
2023-01-17T11:33:14.296Z,783.81
2023-01-17T11:34:14.299Z,783.80
2023-01-17T11:35:14.300Z,783.82
2023-01-17T11:36:14.299Z,783.85
2023-01-17T11:37:14.306Z,783.87
2023-01-17T11:38:14.307Z,783.86
2023-01-17T11:39:14.310Z,783.84
2023-01-17T11:40:14.307Z,783.88
2023-01-17T11:41:14.308Z,783.90
2023-01-17T11:42:14.314Z,783.90
2023-01-17T11:43:14.311Z,783.90
2023-01-17T11:44:14.321Z,783.90
2023-01-17T11:45:14.319Z,783.92
2023-01-17T11:46:14.332Z,783.92
2023-01-17T11:47:14.376Z,783.92
2023-01-17T11:48:14.319Z,783.91
2023-01-17T11:49:14.325Z,783.88
2023-01-17T11:50:14.322Z,783.89
2023-01-17T11:51:14.340Z,783.86
2023-01-17T11:52:14.337Z,783.82
2023-01-17T11:53:14.330Z,783.82
2023-01-17T11:54:14.333Z,783.81
2023-01-17T11:55:14.337Z,783.79
2023-01-17T11:56:14.437Z,783.75
2023-01-17T11:57:14.351Z,783.70
2023-01-17T11:58:14.340Z,783.70
2023-01-17T11:59:14.345Z,783.70
2023-01-17T12:00:14.356Z,783.73
2023-01-17T12:01:14.366Z,783.73
2023-01-17T12:02:14.348Z,783.71
2023-01-17T12:03:14.379Z,783.69
2023-01-17T12:04:14.352Z,783.70
2023-01-17T12:05:14.436Z,783.68
2023-01-17T12:06:14.360Z,783.65
2023-01-17T12:07:14.361Z,783.59
2023-01-17T12:08:14.367Z,783.62
2023-01-17T12:09:14.370Z,783.57
2023-01-17T12:10:14.390Z,783.57
2023-01-17T12:11:14.398Z,783.58
2023-01-17T12:12:14.369Z,783.59
2023-01-17T12:13:14.376Z,783.60
2023-01-17T12:14:14.376Z,783.62
2023-01-17T12:15:14.394Z,783.64
2023-01-17T12:16:14.417Z,783.59
2023-01-17T12:17:14.385Z,783.57
2023-01-17T12:18:14.392Z,783.61
2023-01-17T12:19:14.411Z,783.54
2023-01-17T12:20:14.511Z,783.50
2023-01-17T12:21:14.395Z,783.55
2023-01-17T12:22:14.389Z,783.57
2023-01-17T12:23:14.398Z,783.63
2023-01-17T12:24:14.396Z,783.66
2023-01-17T12:25:14.413Z,783.65
2023-01-17T12:26:14.414Z,783.63
2023-01-17T12:27:14.408Z,783.69
2023-01-17T12:28:14.407Z,783.68
2023-01-17T12:29:14.413Z,783.65
2023-01-17T12:30:14.481Z,783.57